sensor_id;sensor_type;location;lat;lon;timestamp;temperature;humidity
20432;DHT22;10375;49.136;10.366;2023-11-19T00:01:10;6.00;99.90
20432;DHT22;10375;49.136;10.366;2023-11-19T00:03:37;6.00;99.90
20432;DHT22;10375;49.136;10.366;2023-11-19T00:06:04;6.00;99.90
20432;DHT22;10375;49.136;10.366;2023-11-19T00:08:32;6.00;99.90
20432;DHT22;10375;49.136;10.366;2023-11-19T00:10:59;6.00;99.90
20432;DHT22;10375;49.136;10.366;2023-11-19T00:13:28;6.10;99.90
20432;DHT22;10375;49.136;10.366;2023-11-19T00:15:55;6.10;99.90
20432;DHT22;10375;49.136;10.366;2023-11-19T00:18:23;6.10;99.90
20432;DHT22;10375;49.136;10.366;2023-11-19T00:20:50;6.10;99.90
20432;DHT22;10375;49.136;10.366;2023-11-19T00:23:17;6.10;99.90
20432;DHT22;10375;49.136;10.366;2023-11-19T00:25:45;6.10;99.90
20432;DHT22;10375;49.136;10.366;2023-11-19T00:28:12;6.10;99.90
20432;DHT22;10375;49.136;10.366;2023-11-19T00:30:39;6.10;99.90
20432;DHT22;10375;49.136;10.366;2023-11-19T00:33:08;6.10;99.90
20432;DHT22;10375;49.136;10.366;2023-11-19T00:35:35;6.10;99.90
20432;DHT22;10375;49.136;10.366;2023-11-19T00:38:02;6.10;99.90
20432;DHT22;10375;49.136;10.366;2023-11-19T00:40:30;6.20;99.90
20432;DHT22;10375;49.136;10.366;2023-11-19T00:42:58;6.20;99.90
20432;DHT22;10375;49.136;10.366;2023-11-19T00:45:27;6.20;99.90
20432;DHT22;10375;49.136;10.366;2023-11-19T00:47:55;6.20;99.90
20432;DHT22;10375;49.136;10.366;2023-11-19T00:50:22;6.30;99.90
20432;DHT22;10375;49.136;10.366;2023-11-19T00:52:49;6.30;99.90
20432;DHT22;10375;49.136;10.366;2023-11-19T00:55:17;6.30;99.90
20432;DHT22;10375;49.136;10.366;2023-11-19T00:57:44;6.30;99.90
20432;DHT22;10375;49.136;10.366;2023-11-19T01:00:12;6.30;99.90
20432;DHT22;10375;49.136;10.366;2023-11-19T01:02:46;6.30;99.90
20432;DHT22;10375;49.136;10.366;2023-11-19T01:05:16;6.40;99.90
20432;DHT22;10375;49.136;10.366;2023-11-19T01:07:48;6.40;99.90
20432;DHT22;10375;49.136;10.366;2023-11-19T01:10:15;6.40;99.90
20432;DHT22;10375;49.136;10.366;2023-11-19T01:12:44;6.50;99.90
20432;DHT22;10375;49.136;10.366;2023-11-19T01:15:11;6.70;99.90
20432;DHT22;10375;49.136;10.366;2023-11-19T01:17:38;6.70;99.90
20432;DHT22;10375;49.136;10.366;2023-11-19T01:20:06;6.80;99.90
20432;DHT22;10375;49.136;10.366;2023-11-19T01:22:33;6.80;99.90
20432;DHT22;10375;49.136;10.366;2023-11-19T01:25:00;6.90;99.90
20432;DHT22;10375;49.136;10.366;2023-11-19T01:27:27;7.00;99.90
20432;DHT22;10375;49.136;10.366;2023-11-19T01:29:55;7.00;99.90
20432;DHT22;10375;49.136;10.366;2023-11-19T01:32:22;7.10;99.90
20432;DHT22;10375;49.136;10.366;2023-11-19T01:34:51;7.10;99.90
20432;DHT22;10375;49.136;10.366;2023-11-19T01:37:18;7.20;99.90
20432;DHT22;10375;49.136;10.366;2023-11-19T01:39:45;7.30;99.90
20432;DHT22;10375;49.136;10.366;2023-11-19T01:42:24;7.40;99.90
20432;DHT22;10375;49.136;10.366;2023-11-19T01:44:59;7.50;99.90
20432;DHT22;10375;49.136;10.366;2023-11-19T01:47:27;7.40;99.90
20432;DHT22;10375;49.136;10.366;2023-11-19T01:49:56;7.40;99.90
20432;DHT22;10375;49.136;10.366;2023-11-19T01:52:25;7.50;99.90
20432;DHT22;10375;49.136;10.366;2023-11-19T01:54:53;7.50;99.90
20432;DHT22;10375;49.136;10.366;2023-11-19T01:57:22;7.60;99.90
20432;DHT22;10375;49.136;10.366;2023-11-19T01:59:51;7.70;99.90
20432;DHT22;10375;49.136;10.366;2023-11-19T02:02:19;7.70;99.90
20432;DHT22;10375;49.136;10.366;2023-11-19T02:04:49;7.70;99.90
20432;DHT22;10375;49.136;10.366;2023-11-19T02:07:18;7.80;99.90
20432;DHT22;10375;49.136;10.366;2023-11-19T02:09:45;7.80;99.90
20432;DHT22;10375;49.136;10.366;2023-11-19T02:12:12;7.90;99.90
20432;DHT22;10375;49.136;10.366;2023-11-19T02:14:40;7.80;99.90
20432;DHT22;10375;49.136;10.366;2023-11-19T02:17:07;7.90;99.90
20432;DHT22;10375;49.136;10.366;2023-11-19T02:19:35;7.80;99.90
20432;DHT22;10375;49.136;10.366;2023-11-19T02:22:02;7.90;99.90
20432;DHT22;10375;49.136;10.366;2023-11-19T02:24:31;7.90;99.90
20432;DHT22;10375;49.136;10.366;2023-11-19T02:27:02;7.90;99.90
20432;DHT22;10375;49.136;10.366;2023-11-19T02:29:34;7.90;99.90
20432;DHT22;10375;49.136;10.366;2023-11-19T02:32:01;8.00;99.90
20432;DHT22;10375;49.136;10.366;2023-11-19T02:34:30;8.00;99.90
20432;DHT22;10375;49.136;10.366;2023-11-19T02:36:57;8.00;99.90
20432;DHT22;10375;49.136;10.366;2023-11-19T02:39:25;8.00;99.90
20432;DHT22;10375;49.136;10.366;2023-11-19T02:41:53;8.00;99.90
20432;DHT22;10375;49.136;10.366;2023-11-19T02:44:20;8.00;99.90
20432;DHT22;10375;49.136;10.366;2023-11-19T02:46:47;8.10;99.90
20432;DHT22;10375;49.136;10.366;2023-11-19T02:49:15;8.10;99.90
20432;DHT22;10375;49.136;10.366;2023-11-19T02:51:42;8.10;99.90
20432;DHT22;10375;49.136;10.366;2023-11-19T02:54:10;8.10;99.90
20432;DHT22;10375;49.136;10.366;2023-11-19T02:56:37;8.10;99.90
20432;DHT22;10375;49.136;10.366;2023-11-19T02:59:05;8.10;99.90
20432;DHT22;10375;49.136;10.366;2023-11-19T03:01:42;8.20;99.90
20432;DHT22;10375;49.136;10.366;2023-11-19T03:04:11;8.20;99.90
20432;DHT22;10375;49.136;10.366;2023-11-19T03:06:39;8.20;99.90
20432;DHT22;10375;49.136;10.366;2023-11-19T03:09:06;8.20;99.90
20432;DHT22;10375;49.136;10.366;2023-11-19T03:11:37;8.20;99.90
20432;DHT22;10375;49.136;10.366;2023-11-19T03:14:05;8.20;99.90
20432;DHT22;10375;49.136;10.366;2023-11-19T03:16:32;8.20;99.90
20432;DHT22;10375;49.136;10.366;2023-11-19T03:18:59;8.20;99.90
20432;DHT22;10375;49.136;10.366;2023-11-19T03:21:28;8.20;99.90
20432;DHT22;10375;49.136;10.366;2023-11-19T03:23:56;8.20;99.90
20432;DHT22;10375;49.136;10.366;2023-11-19T03:26:23;8.20;99.90
20432;DHT22;10375;49.136;10.366;2023-11-19T03:28:50;8.20;99.90
20432;DHT22;10375;49.136;10.366;2023-11-19T03:31:17;8.30;99.90
20432;DHT22;10375;49.136;10.366;2023-11-19T03:33:44;8.30;99.90
20432;DHT22;10375;49.136;10.366;2023-11-19T03:36:12;8.30;99.90
20432;DHT22;10375;49.136;10.366;2023-11-19T03:38:39;8.30;99.90
20432;DHT22;10375;49.136;10.366;2023-11-19T03:41:13;8.30;99.90
20432;DHT22;10375;49.136;10.366;2023-11-19T03:43:41;8.40;99.90
20432;DHT22;10375;49.136;10.366;2023-11-19T03:46:21;8.40;99.90
20432;DHT22;10375;49.136;10.366;2023-11-19T03:48:49;8.50;99.90
20432;DHT22;10375;49.136;10.366;2023-11-19T03:51:17;8.40;99.90
20432;DHT22;10375;49.136;10.366;2023-11-19T03:53:45;8.50;99.90
20432;DHT22;10375;49.136;10.366;2023-11-19T03:56:12;8.50;99.90
20432;DHT22;10375;49.136;10.366;2023-11-19T03:58:39;8.50;99.90
20432;DHT22;10375;49.136;10.366;2023-11-19T04:01:11;8.50;99.90
20432;DHT22;10375;49.136;10.366;2023-11-19T04:03:40;8.50;99.90
20432;DHT22;10375;49.136;10.366;2023-11-19T04:06:11;8.60;99.90
20432;DHT22;10375;49.136;10.366;2023-11-19T04:08:38;8.60;99.90
20432;DHT22;10375;49.136;10.366;2023-11-19T04:11:05;8.60;99.90
20432;DHT22;10375;49.136;10.366;2023-11-19T04:13:32;8.70;99.90
20432;DHT22;10375;49.136;10.366;2023-11-19T04:16:00;8.70;99.90
20432;DHT22;10375;49.136;10.366;2023-11-19T04:18:28;8.70;99.90
20432;DHT22;10375;49.136;10.366;2023-11-19T04:20:55;8.80;99.90
20432;DHT22;10375;49.136;10.366;2023-11-19T04:23:24;8.80;99.90
20432;DHT22;10375;49.136;10.366;2023-11-19T04:25:51;8.80;99.90
20432;DHT22;10375;49.136;10.366;2023-11-19T04:28:19;8.80;99.90
20432;DHT22;10375;49.136;10.366;2023-11-19T04:30:46;8.80;99.90
20432;DHT22;10375;49.136;10.366;2023-11-19T04:33:13;8.80;99.90
20432;DHT22;10375;49.136;10.366;2023-11-19T04:35:41;8.90;99.90
20432;DHT22;10375;49.136;10.366;2023-11-19T04:38:09;8.80;99.90
20432;DHT22;10375;49.136;10.366;2023-11-19T04:40:36;8.90;99.90
20432;DHT22;10375;49.136;10.366;2023-11-19T04:43:03;8.90;99.90
20432;DHT22;10375;49.136;10.366;2023-11-19T04:45:31;8.90;99.90
20432;DHT22;10375;49.136;10.366;2023-11-19T04:47:59;8.90;99.90
20432;DHT22;10375;49.136;10.366;2023-11-19T04:50:26;8.90;99.90
20432;DHT22;10375;49.136;10.366;2023-11-19T04:52:54;8.90;99.90
20432;DHT22;10375;49.136;10.366;2023-11-19T04:55:26;8.90;99.90
20432;DHT22;10375;49.136;10.366;2023-11-19T04:57:54;8.90;99.90
20432;DHT22;10375;49.136;10.366;2023-11-19T05:00:21;8.90;99.90
20432;DHT22;10375;49.136;10.366;2023-11-19T05:02:49;8.90;99.90
20432;DHT22;10375;49.136;10.366;2023-11-19T05:05:17;8.90;99.90
20432;DHT22;10375;49.136;10.366;2023-11-19T05:07:44;9.00;99.90
20432;DHT22;10375;49.136;10.366;2023-11-19T05:10:12;9.00;99.90
20432;DHT22;10375;49.136;10.366;2023-11-19T05:12:39;9.00;99.90
20432;DHT22;10375;49.136;10.366;2023-11-19T05:15:06;9.10;99.90
20432;DHT22;10375;49.136;10.366;2023-11-19T05:17:34;9.00;99.90
20432;DHT22;10375;49.136;10.366;2023-11-19T05:20:01;9.10;99.90
20432;DHT22;10375;49.136;10.366;2023-11-19T05:22:28;9.10;99.90
20432;DHT22;10375;49.136;10.366;2023-11-19T05:24:55;9.10;99.90
20432;DHT22;10375;49.136;10.366;2023-11-19T05:27:23;9.20;99.90
20432;DHT22;10375;49.136;10.366;2023-11-19T05:29:50;9.20;99.90
20432;DHT22;10375;49.136;10.366;2023-11-19T05:32:17;9.20;99.90
20432;DHT22;10375;49.136;10.366;2023-11-19T05:34:44;9.30;99.90
20432;DHT22;10375;49.136;10.366;2023-11-19T05:37:15;9.30;99.90
20432;DHT22;10375;49.136;10.366;2023-11-19T05:39:42;9.20;99.90
20432;DHT22;10375;49.136;10.366;2023-11-19T05:42:09;9.20;99.90
20432;DHT22;10375;49.136;10.366;2023-11-19T05:44:37;9.20;99.90
20432;DHT22;10375;49.136;10.366;2023-11-19T05:47:07;9.20;99.90
20432;DHT22;10375;49.136;10.366;2023-11-19T05:49:34;9.20;99.90
20432;DHT22;10375;49.136;10.366;2023-11-19T05:52:02;9.20;99.90
20432;DHT22;10375;49.136;10.366;2023-11-19T05:54:30;9.30;99.90
20432;DHT22;10375;49.136;10.366;2023-11-19T05:56:58;9.30;99.90
20432;DHT22;10375;49.136;10.366;2023-11-19T05:59:25;9.30;99.90
20432;DHT22;10375;49.136;10.366;2023-11-19T06:01:54;9.30;99.90
20432;DHT22;10375;49.136;10.366;2023-11-19T06:04:21;9.30;99.90
20432;DHT22;10375;49.136;10.366;2023-11-19T06:06:48;9.40;99.90
20432;DHT22;10375;49.136;10.366;2023-11-19T06:09:15;9.40;99.90
20432;DHT22;10375;49.136;10.366;2023-11-19T06:11:45;9.40;99.90
20432;DHT22;10375;49.136;10.366;2023-11-19T06:14:14;9.40;99.90
20432;DHT22;10375;49.136;10.366;2023-11-19T06:16:41;9.40;99.90
20432;DHT22;10375;49.136;10.366;2023-11-19T06:19:09;9.40;99.90
20432;DHT22;10375;49.136;10.366;2023-11-19T06:21:37;9.40;99.90
20432;DHT22;10375;49.136;10.366;2023-11-19T06:24:04;9.40;99.90
20432;DHT22;10375;49.136;10.366;2023-11-19T06:26:32;9.40;99.90
20432;DHT22;10375;49.136;10.366;2023-11-19T06:28:59;9.50;99.90
20432;DHT22;10375;49.136;10.366;2023-11-19T06:31:26;9.50;99.90
20432;DHT22;10375;49.136;10.366;2023-11-19T06:33:54;9.60;99.90
20432;DHT22;10375;49.136;10.366;2023-11-19T06:36:21;9.60;99.90
20432;DHT22;10375;49.136;10.366;2023-11-19T06:38:48;9.60;99.90
20432;DHT22;10375;49.136;10.366;2023-11-19T06:41:15;9.60;99.90
20432;DHT22;10375;49.136;10.366;2023-11-19T06:43:42;9.70;99.90
20432;DHT22;10375;49.136;10.366;2023-11-19T06:46:17;9.70;99.90
20432;DHT22;10375;49.136;10.366;2023-11-19T06:48:46;9.70;99.90
20432;DHT22;10375;49.136;10.366;2023-11-19T06:51:13;9.70;99.90
20432;DHT22;10375;49.136;10.366;2023-11-19T06:53:42;9.80;99.90
20432;DHT22;10375;49.136;10.366;2023-11-19T06:56:19;9.80;99.90
20432;DHT22;10375;49.136;10.366;2023-11-19T06:58:46;9.90;99.90
20432;DHT22;10375;49.136;10.366;2023-11-19T07:01:16;9.90;99.90
20432;DHT22;10375;49.136;10.366;2023-11-19T07:03:44;9.90;99.90
20432;DHT22;10375;49.136;10.366;2023-11-19T07:06:12;10.00;99.90
20432;DHT22;10375;49.136;10.366;2023-11-19T07:08:42;10.00;99.90
20432;DHT22;10375;49.136;10.366;2023-11-19T07:11:12;10.00;99.90
20432;DHT22;10375;49.136;10.366;2023-11-19T07:13:41;10.00;99.90
20432;DHT22;10375;49.136;10.366;2023-11-19T07:16:08;10.00;99.90
20432;DHT22;10375;49.136;10.366;2023-11-19T07:18:38;10.00;99.90
20432;DHT22;10375;49.136;10.366;2023-11-19T07:21:06;10.00;99.90
20432;DHT22;10375;49.136;10.366;2023-11-19T07:23:34;10.00;99.90
20432;DHT22;10375;49.136;10.366;2023-11-19T07:26:04;10.10;99.90
20432;DHT22;10375;49.136;10.366;2023-11-19T07:28:32;10.10;99.90
20432;DHT22;10375;49.136;10.366;2023-11-19T07:30:59;10.10;99.90
20432;DHT22;10375;49.136;10.366;2023-11-19T07:33:26;10.20;99.90
20432;DHT22;10375;49.136;10.366;2023-11-19T07:35:53;10.20;99.90
20432;DHT22;10375;49.136;10.366;2023-11-19T07:38:21;10.20;99.90
20432;DHT22;10375;49.136;10.366;2023-11-19T07:40:48;10.20;99.90
20432;DHT22;10375;49.136;10.366;2023-11-19T07:43:18;10.30;99.90
20432;DHT22;10375;49.136;10.366;2023-11-19T07:45:45;10.30;99.90
20432;DHT22;10375;49.136;10.366;2023-11-19T07:48:13;10.40;99.90
20432;DHT22;10375;49.136;10.366;2023-11-19T07:50:40;10.40;99.90
20432;DHT22;10375;49.136;10.366;2023-11-19T07:53:07;10.40;99.90
20432;DHT22;10375;49.136;10.366;2023-11-19T07:55:35;10.40;99.90
20432;DHT22;10375;49.136;10.366;2023-11-19T07:58:08;10.40;99.90
20432;DHT22;10375;49.136;10.366;2023-11-19T08:00:35;10.50;99.90
20432;DHT22;10375;49.136;10.366;2023-11-19T08:03:03;10.50;99.90
20432;DHT22;10375;49.136;10.366;2023-11-19T08:05:33;10.50;99.90
20432;DHT22;10375;49.136;10.366;2023-11-19T08:08:00;10.60;99.90
20432;DHT22;10375;49.136;10.366;2023-11-19T08:10:33;10.50;99.90
20432;DHT22;10375;49.136;10.366;2023-11-19T08:13:00;10.60;99.90
20432;DHT22;10375;49.136;10.366;2023-11-19T08:15:27;10.60;99.90
20432;DHT22;10375;49.136;10.366;2023-11-19T08:17:57;10.70;99.90
20432;DHT22;10375;49.136;10.366;2023-11-19T08:20:24;10.70;99.90
20432;DHT22;10375;49.136;10.366;2023-11-19T08:22:52;10.70;99.90
20432;DHT22;10375;49.136;10.366;2023-11-19T08:25:19;10.80;99.90
20432;DHT22;10375;49.136;10.366;2023-11-19T08:27:47;11.00;99.90
20432;DHT22;10375;49.136;10.366;2023-11-19T08:30:14;11.00;99.90
20432;DHT22;10375;49.136;10.366;2023-11-19T08:32:41;11.00;99.90
20432;DHT22;10375;49.136;10.366;2023-11-19T08:35:09;11.10;99.90
20432;DHT22;10375;49.136;10.366;2023-11-19T08:37:36;11.10;99.90
20432;DHT22;10375;49.136;10.366;2023-11-19T08:40:05;11.10;99.90
20432;DHT22;10375;49.136;10.366;2023-11-19T08:42:35;11.10;99.90
20432;DHT22;10375;49.136;10.366;2023-11-19T08:45:02;11.20;99.90
20432;DHT22;10375;49.136;10.366;2023-11-19T08:47:33;11.20;99.90
20432;DHT22;10375;49.136;10.366;2023-11-19T08:50:01;11.30;99.90
20432;DHT22;10375;49.136;10.366;2023-11-19T08:52:31;11.30;99.90
20432;DHT22;10375;49.136;10.366;2023-11-19T08:55:01;11.30;99.90
20432;DHT22;10375;49.136;10.366;2023-11-19T08:57:28;11.40;99.90
20432;DHT22;10375;49.136;10.366;2023-11-19T08:59:58;11.40;99.90
20432;DHT22;10375;49.136;10.366;2023-11-19T09:02:26;11.50;99.90
20432;DHT22;10375;49.136;10.366;2023-11-19T09:04:59;11.60;99.90
20432;DHT22;10375;49.136;10.366;2023-11-19T09:07:27;11.50;99.90
20432;DHT22;10375;49.136;10.366;2023-11-19T09:09:55;11.60;99.90
20432;DHT22;10375;49.136;10.366;2023-11-19T09:12:22;11.60;99.90
20432;DHT22;10375;49.136;10.366;2023-11-19T09:14:49;11.60;99.90
20432;DHT22;10375;49.136;10.366;2023-11-19T09:17:17;11.60;99.90
20432;DHT22;10375;49.136;10.366;2023-11-19T09:19:47;11.50;99.90
20432;DHT22;10375;49.136;10.366;2023-11-19T09:22:14;11.50;99.90
20432;DHT22;10375;49.136;10.366;2023-11-19T09:24:41;11.40;99.90
20432;DHT22;10375;49.136;10.366;2023-11-19T09:27:10;11.40;99.90
20432;DHT22;10375;49.136;10.366;2023-11-19T09:29:38;11.40;99.90
20432;DHT22;10375;49.136;10.366;2023-11-19T09:32:06;11.60;99.90
20432;DHT22;10375;49.136;10.366;2023-11-19T09:34:34;11.70;99.90
20432;DHT22;10375;49.136;10.366;2023-11-19T09:37:01;11.80;99.90
20432;DHT22;10375;49.136;10.366;2023-11-19T09:39:29;11.90;99.90
20432;DHT22;10375;49.136;10.366;2023-11-19T09:41:57;12.20;99.90
20432;DHT22;10375;49.136;10.366;2023-11-19T09:44:25;12.30;99.90
20432;DHT22;10375;49.136;10.366;2023-11-19T09:46:54;12.30;99.90
20432;DHT22;10375;49.136;10.366;2023-11-19T09:49:26;12.30;99.90
20432;DHT22;10375;49.136;10.366;2023-11-19T09:51:56;12.30;99.90
20432;DHT22;10375;49.136;10.366;2023-11-19T09:54:23;12.30;99.90
20432;DHT22;10375;49.136;10.366;2023-11-19T09:56:50;12.30;99.90
20432;DHT22;10375;49.136;10.366;2023-11-19T09:59:23;12.50;99.90
20432;DHT22;10375;49.136;10.366;2023-11-19T10:01:50;12.60;99.90
20432;DHT22;10375;49.136;10.366;2023-11-19T10:04:19;13.00;99.90
20432;DHT22;10375;49.136;10.366;2023-11-19T10:06:47;13.30;99.90
20432;DHT22;10375;49.136;10.366;2023-11-19T10:09:14;13.30;99.90
20432;DHT22;10375;49.136;10.366;2023-11-19T10:11:42;13.20;99.90
20432;DHT22;10375;49.136;10.366;2023-11-19T10:14:09;13.10;99.90
20432;DHT22;10375;49.136;10.366;2023-11-19T10:16:38;13.10;99.90
20432;DHT22;10375;49.136;10.366;2023-11-19T10:19:06;13.10;99.90
20432;DHT22;10375;49.136;10.366;2023-11-19T10:21:33;13.00;99.90
20432;DHT22;10375;49.136;10.366;2023-11-19T10:24:01;12.90;99.90
20432;DHT22;10375;49.136;10.366;2023-11-19T10:26:28;12.80;99.90
20432;DHT22;10375;49.136;10.366;2023-11-19T10:28:56;12.70;99.90
20432;DHT22;10375;49.136;10.366;2023-11-19T10:31:23;12.50;99.90
20432;DHT22;10375;49.136;10.366;2023-11-19T10:33:52;12.50;99.90
20432;DHT22;10375;49.136;10.366;2023-11-19T10:36:20;12.50;99.90
20432;DHT22;10375;49.136;10.366;2023-11-19T10:38:55;12.40;99.90
20432;DHT22;10375;49.136;10.366;2023-11-19T10:41:32;12.50;99.90
20432;DHT22;10375;49.136;10.366;2023-11-19T10:44:02;12.60;99.90
20432;DHT22;10375;49.136;10.366;2023-11-19T10:46:42;12.70;99.90
20432;DHT22;10375;49.136;10.366;2023-11-19T10:49:10;12.90;99.90
20432;DHT22;10375;49.136;10.366;2023-11-19T10:51:44;13.20;99.90
20432;DHT22;10375;49.136;10.366;2023-11-19T10:54:15;13.40;99.90
20432;DHT22;10375;49.136;10.366;2023-11-19T10:56:44;13.40;99.90
20432;DHT22;10375;49.136;10.366;2023-11-19T10:59:15;13.40;99.90
20432;DHT22;10375;49.136;10.366;2023-11-19T11:01:48;13.30;99.90
20432;DHT22;10375;49.136;10.366;2023-11-19T11:04:25;13.30;99.90
20432;DHT22;10375;49.136;10.366;2023-11-19T11:06:58;13.20;99.90
20432;DHT22;10375;49.136;10.366;2023-11-19T11:09:31;13.30;99.90
20432;DHT22;10375;49.136;10.366;2023-11-19T11:12:00;13.50;99.90
20432;DHT22;10375;49.136;10.366;2023-11-19T11:14:28;13.60;99.90
20432;DHT22;10375;49.136;10.366;2023-11-19T11:16:58;13.60;99.90
20432;DHT22;10375;49.136;10.366;2023-11-19T11:19:25;13.70;99.90
20432;DHT22;10375;49.136;10.366;2023-11-19T11:21:54;13.80;99.90
20432;DHT22;10375;49.136;10.366;2023-11-19T11:27:48;13.80;99.90
20432;DHT22;10375;49.136;10.366;2023-11-19T11:36:06;13.70;99.90
20432;DHT22;10375;49.136;10.366;2023-11-19T11:38:37;13.80;99.90
20432;DHT22;10375;49.136;10.366;2023-11-19T11:41:19;13.70;99.90
20432;DHT22;10375;49.136;10.366;2023-11-19T11:43:50;13.60;99.90
20432;DHT22;10375;49.136;10.366;2023-11-19T11:49:07;13.50;99.90
20432;DHT22;10375;49.136;10.366;2023-11-19T12:02:13;12.50;99.90
20432;DHT22;10375;49.136;10.366;2023-11-19T12:04:40;12.40;99.90
20432;DHT22;10375;49.136;10.366;2023-11-19T12:07:17;12.30;99.90
20432;DHT22;10375;49.136;10.366;2023-11-19T12:10:08;12.20;99.90
20432;DHT22;10375;49.136;10.366;2023-11-19T12:12:39;12.10;99.90
20432;DHT22;10375;49.136;10.366;2023-11-19T12:15:08;12.10;99.90
20432;DHT22;10375;49.136;10.366;2023-11-19T12:17:47;12.10;99.90
20432;DHT22;10375;49.136;10.366;2023-11-19T12:20:23;12.30;99.90
20432;DHT22;10375;49.136;10.366;2023-11-19T12:22:53;12.30;99.90
20432;DHT22;10375;49.136;10.366;2023-11-19T12:25:21;12.40;99.90
20432;DHT22;10375;49.136;10.366;2023-11-19T12:27:51;12.60;99.90
20432;DHT22;10375;49.136;10.366;2023-11-19T12:30:27;12.90;99.90
20432;DHT22;10375;49.136;10.366;2023-11-19T12:32:56;13.30;99.90
20432;DHT22;10375;49.136;10.366;2023-11-19T12:35:23;13.60;99.90
20432;DHT22;10375;49.136;10.366;2023-11-19T12:37:51;13.80;99.90
20432;DHT22;10375;49.136;10.366;2023-11-19T12:40:22;14.10;99.90
20432;DHT22;10375;49.136;10.366;2023-11-19T12:42:50;14.50;99.90
20432;DHT22;10375;49.136;10.366;2023-11-19T12:45:18;14.50;99.90
20432;DHT22;10375;49.136;10.366;2023-11-19T12:47:47;14.40;99.90
20432;DHT22;10375;49.136;10.366;2023-11-19T12:50:16;14.50;99.90
20432;DHT22;10375;49.136;10.366;2023-11-19T12:53:04;14.60;99.90
20432;DHT22;10375;49.136;10.366;2023-11-19T12:55:31;14.80;99.90
20432;DHT22;10375;49.136;10.366;2023-11-19T12:57:59;15.00;99.90
20432;DHT22;10375;49.136;10.366;2023-11-19T13:00:27;15.10;99.90
20432;DHT22;10375;49.136;10.366;2023-11-19T13:02:56;15.10;99.90
20432;DHT22;10375;49.136;10.366;2023-11-19T13:05:27;15.20;99.90
20432;DHT22;10375;49.136;10.366;2023-11-19T13:08:08;15.30;99.90
20432;DHT22;10375;49.136;10.366;2023-11-19T13:10:53;15.40;99.90
20432;DHT22;10375;49.136;10.366;2023-11-19T13:13:23;15.60;99.90
20432;DHT22;10375;49.136;10.366;2023-11-19T13:15:50;15.70;99.90
20432;DHT22;10375;49.136;10.366;2023-11-19T13:18:17;15.90;99.90
20432;DHT22;10375;49.136;10.366;2023-11-19T13:20:44;15.80;99.90
20432;DHT22;10375;49.136;10.366;2023-11-19T13:23:12;15.80;99.90
20432;DHT22;10375;49.136;10.366;2023-11-19T13:25:39;15.70;99.90
20432;DHT22;10375;49.136;10.366;2023-11-19T13:28:06;15.60;99.90
20432;DHT22;10375;49.136;10.366;2023-11-19T13:30:33;15.60;99.90
20432;DHT22;10375;49.136;10.366;2023-11-19T13:33:00;15.70;99.90
20432;DHT22;10375;49.136;10.366;2023-11-19T13:35:28;15.60;99.90
20432;DHT22;10375;49.136;10.366;2023-11-19T13:37:55;15.60;99.90
20432;DHT22;10375;49.136;10.366;2023-11-19T13:40:22;15.60;99.90
20432;DHT22;10375;49.136;10.366;2023-11-19T13:42:51;15.50;99.90
20432;DHT22;10375;49.136;10.366;2023-11-19T13:45:18;15.50;99.90
20432;DHT22;10375;49.136;10.366;2023-11-19T13:47:48;15.20;99.90
20432;DHT22;10375;49.136;10.366;2023-11-19T13:50:16;15.10;99.90
20432;DHT22;10375;49.136;10.366;2023-11-19T13:52:46;14.80;99.90
20432;DHT22;10375;49.136;10.366;2023-11-19T13:55:14;14.50;99.90
20432;DHT22;10375;49.136;10.366;2023-11-19T13:57:42;14.40;99.90
20432;DHT22;10375;49.136;10.366;2023-11-19T14:00:11;14.20;99.90
20432;DHT22;10375;49.136;10.366;2023-11-19T14:02:43;14.30;99.90
20432;DHT22;10375;49.136;10.366;2023-11-19T14:05:11;14.30;99.90
20432;DHT22;10375;49.136;10.366;2023-11-19T14:07:39;14.30;99.90
20432;DHT22;10375;49.136;10.366;2023-11-19T14:10:07;14.20;99.90
20432;DHT22;10375;49.136;10.366;2023-11-19T14:12:40;14.20;99.90
20432;DHT22;10375;49.136;10.366;2023-11-19T14:15:08;14.00;99.90
20432;DHT22;10375;49.136;10.366;2023-11-19T14:17:36;13.90;99.90
20432;DHT22;10375;49.136;10.366;2023-11-19T14:20:04;13.70;99.90
20432;DHT22;10375;49.136;10.366;2023-11-19T14:22:40;13.40;99.90
20432;DHT22;10375;49.136;10.366;2023-11-19T14:25:09;13.10;99.90
20432;DHT22;10375;49.136;10.366;2023-11-19T14:27:40;12.80;99.90
20432;DHT22;10375;49.136;10.366;2023-11-19T14:30:10;12.70;99.90
20432;DHT22;10375;49.136;10.366;2023-11-19T14:32:42;12.60;99.90
20432;DHT22;10375;49.136;10.366;2023-11-19T14:35:11;12.50;99.90
20432;DHT22;10375;49.136;10.366;2023-11-19T14:37:39;12.50;99.90
20432;DHT22;10375;49.136;10.366;2023-11-19T14:40:06;12.50;99.90
20432;DHT22;10375;49.136;10.366;2023-11-19T14:42:37;12.40;99.90
20432;DHT22;10375;49.136;10.366;2023-11-19T14:45:06;12.40;99.90
20432;DHT22;10375;49.136;10.366;2023-11-19T14:47:34;12.30;99.90
20432;DHT22;10375;49.136;10.366;2023-11-19T14:50:01;12.30;99.90
20432;DHT22;10375;49.136;10.366;2023-11-19T14:52:30;12.20;99.90
20432;DHT22;10375;49.136;10.366;2023-11-19T14:54:57;12.20;99.90
20432;DHT22;10375;49.136;10.366;2023-11-19T14:57:24;12.20;99.90
20432;DHT22;10375;49.136;10.366;2023-11-19T14:59:52;12.20;99.90
20432;DHT22;10375;49.136;10.366;2023-11-19T15:02:19;12.30;99.90
20432;DHT22;10375;49.136;10.366;2023-11-19T15:04:49;12.20;99.90
20432;DHT22;10375;49.136;10.366;2023-11-19T15:07:16;12.20;99.90
20432;DHT22;10375;49.136;10.366;2023-11-19T15:09:43;12.20;99.90
20432;DHT22;10375;49.136;10.366;2023-11-19T15:12:10;12.10;99.90
20432;DHT22;10375;49.136;10.366;2023-11-19T15:14:38;12.00;99.90
20432;DHT22;10375;49.136;10.366;2023-11-19T15:17:05;11.90;99.90
20432;DHT22;10375;49.136;10.366;2023-11-19T15:19:34;11.80;99.90
20432;DHT22;10375;49.136;10.366;2023-11-19T15:22:01;11.70;99.90
20432;DHT22;10375;49.136;10.366;2023-11-19T15:24:32;11.70;99.90
20432;DHT22;10375;49.136;10.366;2023-11-19T15:26:59;11.70;99.90
20432;DHT22;10375;49.136;10.366;2023-11-19T15:29:29;11.60;99.90
20432;DHT22;10375;49.136;10.366;2023-11-19T15:31:57;11.50;99.90
20432;DHT22;10375;49.136;10.366;2023-11-19T15:34:24;11.40;99.90
20432;DHT22;10375;49.136;10.366;2023-11-19T15:36:51;11.40;99.90
20432;DHT22;10375;49.136;10.366;2023-11-19T15:39:19;11.30;99.90
20432;DHT22;10375;49.136;10.366;2023-11-19T15:41:46;11.30;99.90
20432;DHT22;10375;49.136;10.366;2023-11-19T15:44:14;11.30;99.90
20432;DHT22;10375;49.136;10.366;2023-11-19T15:46:41;11.20;99.90
20432;DHT22;10375;49.136;10.366;2023-11-19T15:49:08;11.10;99.90
20432;DHT22;10375;49.136;10.366;2023-11-19T15:51:36;11.00;99.90
20432;DHT22;10375;49.136;10.366;2023-11-19T15:54:03;11.10;99.90